createdAt,value
2023-04-15T00:01:22.680Z,7.86
2023-04-15T00:03:53.801Z,7.79
2023-04-15T00:06:22.789Z,8.09
2023-04-15T00:08:53.625Z,8.15
2023-04-15T00:11:22.312Z,8.27
2023-04-15T00:13:51.266Z,8.38
2023-04-15T00:16:19.990Z,8.17
2023-04-15T00:18:48.767Z,8.33
2023-04-15T00:21:17.798Z,8.05
2023-04-15T00:23:49.840Z,8.07
2023-04-15T00:26:20.815Z,7.99
2023-04-15T00:28:49.988Z,8.11
2023-04-15T00:31:19.188Z,8.38
2023-04-15T00:33:48.770Z,8.21
2023-04-15T00:36:17.731Z,8.22
2023-04-15T00:38:46.809Z,8.02
2023-04-15T00:41:15.768Z,7.93
2023-04-15T00:43:45.885Z,8.04
2023-04-15T00:46:15.677Z,8.66
2023-04-15T00:48:47.354Z,8.48
2023-04-15T00:51:16.383Z,8.60
2023-04-15T00:53:45.112Z,8.38
2023-04-15T00:56:15.172Z,8.54
2023-04-15T00:58:45.870Z,8.61
2023-04-15T01:01:14.866Z,8.63
2023-04-15T01:03:44.049Z,8.33
2023-04-15T01:06:12.910Z,8.43
2023-04-15T01:08:42.166Z,8.72
2023-04-15T01:11:12.091Z,8.90
2023-04-15T01:13:41.782Z,8.86
2023-04-15T01:16:13.139Z,8.71
2023-04-15T01:18:42.582Z,8.73
2023-04-15T01:21:11.843Z,8.77
2023-04-15T01:23:40.940Z,9.07
2023-04-15T01:26:11.339Z,8.48
2023-04-15T01:28:40.637Z,8.57
2023-04-15T01:31:10.772Z,8.70
2023-04-15T01:33:40.275Z,9.02
2023-04-15T01:36:27.980Z,9.10
2023-04-15T01:38:57.541Z,9.05
2023-04-15T01:41:30.329Z,9.15
2023-04-15T01:44:00.674Z,9.04
2023-04-15T01:46:30.842Z,9.16
2023-04-15T01:49:01.651Z,8.89
2023-04-15T01:51:32.100Z,8.94
2023-04-15T01:54:02.316Z,8.90
2023-04-15T01:56:35.210Z,8.90
2023-04-15T01:59:06.544Z,9.01
2023-04-15T02:01:36.547Z,8.99
2023-04-15T02:04:07.305Z,9.07
2023-04-15T02:06:37.322Z,9.14
2023-04-15T02:09:07.553Z,9.18
2023-04-15T02:11:39.318Z,9.11
2023-04-15T02:14:09.601Z,8.89
2023-04-15T02:16:39.878Z,9.29
2023-04-15T02:19:10.587Z,9.36
2023-04-15T02:21:41.060Z,9.26
2023-04-15T02:24:12.204Z,9.19
2023-04-15T02:26:46.718Z,9.20
2023-04-15T02:29:18.232Z,9.06
2023-04-15T02:31:48.568Z,9.16
2023-04-15T02:34:18.480Z,9.26
2023-04-15T02:36:54.977Z,8.94
2023-04-15T02:39:27.613Z,9.37
2023-04-15T02:42:00.185Z,9.12
2023-04-15T02:44:30.233Z,9.19
2023-04-15T02:47:00.954Z,9.09
2023-04-15T02:49:31.293Z,9.19
2023-04-15T02:52:01.693Z,9.24
2023-04-15T02:54:33.469Z,9.11
2023-04-15T02:57:06.831Z,9.08
2023-04-15T02:59:36.870Z,9.06
2023-04-15T03:02:07.884Z,9.15
2023-04-15T03:04:37.953Z,9.31
2023-04-15T03:07:08.457Z,9.04
2023-04-15T03:09:40.450Z,8.96
2023-04-15T03:12:12.302Z,8.85
2023-04-15T03:14:42.415Z,9.03
2023-04-15T03:17:12.706Z,8.98
2023-04-15T03:19:42.705Z,8.96
2023-04-15T03:22:13.343Z,8.84
2023-04-15T03:24:43.262Z,8.89
2023-04-15T03:27:15.459Z,8.87
2023-04-15T03:29:45.909Z,8.92
2023-04-15T03:32:17.056Z,9.03
2023-04-15T03:34:47.730Z,9.13
2023-04-15T03:37:19.099Z,8.87
2023-04-15T03:39:49.092Z,8.93
2023-04-15T03:42:20.648Z,9.11
2023-04-15T03:44:50.432Z,9.10
2023-04-15T03:47:20.636Z,9.08
2023-04-15T03:49:50.636Z,9.03
2023-04-15T03:52:21.060Z,9.02
2023-04-15T03:54:51.532Z,9.16
2023-04-15T03:57:23.176Z,9.16
2023-04-15T03:59:52.854Z,9.07
2023-04-15T04:02:23.528Z,8.73
2023-04-15T04:04:54.059Z,8.75
2023-04-15T04:07:24.798Z,8.79
2023-04-15T04:09:55.111Z,8.94
2023-04-15T04:12:26.492Z,8.91
2023-04-15T04:14:56.780Z,8.96
2023-04-15T04:17:26.745Z,9.03
2023-04-15T04:19:56.993Z,9.19
2023-04-15T04:22:26.981Z,9.07
2023-04-15T04:24:59.386Z,9.21
2023-04-15T04:27:32.226Z,9.22
2023-04-15T04:30:02.690Z,9.24
2023-04-15T04:32:35.424Z,9.39
2023-04-15T04:35:06.183Z,9.24
2023-04-15T04:37:36.229Z,9.30
2023-04-15T04:40:08.164Z,9.24
2023-04-15T04:42:40.113Z,9.17
2023-04-15T04:45:11.235Z,9.18
2023-04-15T04:47:41.219Z,9.43
2023-04-15T04:50:12.202Z,9.30
2023-04-15T04:52:42.265Z,9.23
2023-04-15T04:55:12.549Z,9.57
2023-04-15T04:57:43.927Z,9.55
2023-04-15T05:00:14.902Z,9.55
2023-04-15T05:02:45.164Z,9.55
2023-04-15T05:05:15.481Z,9.54
2023-04-15T05:07:46.195Z,9.72
2023-04-15T05:10:18.127Z,9.68
2023-04-15T05:12:49.495Z,9.62
2023-04-15T05:15:20.471Z,9.57
2023-04-15T05:17:50.496Z,9.64
2023-04-15T05:20:20.873Z,9.78
2023-04-15T05:22:50.823Z,9.81
2023-04-15T05:25:21.299Z,9.94
2023-04-15T05:27:52.690Z,10.16
2023-04-15T05:30:23.335Z,10.01
2023-04-15T05:32:53.452Z,10.03
2023-04-15T05:35:23.963Z,10.12
2023-04-15T05:37:53.870Z,10.29
2023-04-15T05:40:24.392Z,10.08
2023-04-15T05:42:56.258Z,10.17
2023-04-15T05:45:27.345Z,9.97
2023-04-15T05:47:57.578Z,10.24
2023-04-15T05:50:28.063Z,10.37
2023-04-15T05:52:58.019Z,10.36
2023-04-15T05:55:28.317Z,10.44
2023-04-15T05:57:59.607Z,10.33
2023-04-15T06:00:29.897Z,10.33
2023-04-15T06:03:00.387Z,10.25
2023-04-15T06:05:30.478Z,10.40
2023-04-15T06:08:00.739Z,10.50
2023-04-15T06:10:30.952Z,10.52
2023-04-15T06:13:02.575Z,10.81
2023-04-15T06:15:32.409Z,10.91
2023-04-15T06:18:03.288Z,11.09
2023-04-15T06:20:33.462Z,10.80
2023-04-15T06:23:03.753Z,11.09
2023-04-15T06:25:33.749Z,11.22
2023-04-15T06:28:06.078Z,11.38
2023-04-15T06:30:36.947Z,11.47
2023-04-15T06:33:07.512Z,11.68
2023-04-15T06:35:37.716Z,11.74
2023-04-15T06:38:07.973Z,11.69
2023-04-15T06:40:38.079Z,11.71
2023-04-15T06:43:10.369Z,11.81
2023-04-15T06:45:40.472Z,11.79
2023-04-15T06:48:10.795Z,11.98
2023-04-15T06:50:41.112Z,11.87
2023-04-15T06:53:11.481Z,11.81
2023-04-15T06:55:41.610Z,11.95
2023-04-15T06:58:13.255Z,11.97
2023-04-15T07:00:43.066Z,11.87
2023-04-15T07:03:13.868Z,11.99
2023-04-15T07:05:44.079Z,11.72
2023-04-15T07:08:14.794Z,11.95
2023-04-15T07:10:44.834Z,12.17
2023-04-15T07:13:16.555Z,12.41
2023-04-15T07:15:46.607Z,12.33
2023-04-15T07:18:16.863Z,12.63
2023-04-15T07:20:47.048Z,12.74
2023-04-15T07:23:17.496Z,12.82
2023-04-15T07:25:47.690Z,12.21
2023-04-15T07:28:20.040Z,12.50
2023-04-15T07:30:50.297Z,12.85
2023-04-15T07:33:20.593Z,12.83
2023-04-15T07:35:50.651Z,12.74
2023-04-15T07:38:20.904Z,12.98
2023-04-15T07:40:50.907Z,12.73
2023-04-15T07:43:22.699Z,12.81
2023-04-15T07:45:53.145Z,12.90
2023-04-15T07:48:23.448Z,12.94
2023-04-15T07:50:53.542Z,13.09
2023-04-15T07:53:24.049Z,13.09
2023-04-15T07:55:54.147Z,13.02
2023-04-15T07:58:25.855Z,13.01
2023-04-15T08:00:57.335Z,13.06
2023-04-15T08:03:27.700Z,13.33
2023-04-15T08:05:57.784Z,13.19
2023-04-15T08:08:28.092Z,13.17
2023-04-15T08:10:58.406Z,13.23
2023-04-15T08:13:30.047Z,13.14
2023-04-15T08:16:16.239Z,13.20
2023-04-15T08:18:47.362Z,13.19
2023-04-15T08:21:17.829Z,13.35
2023-04-15T08:23:49.700Z,13.32
2023-04-15T08:26:20.015Z,13.32
2023-04-15T08:28:52.428Z,13.63
2023-04-15T08:31:22.598Z,13.59
2023-04-15T08:33:54.514Z,13.70
2023-04-15T08:36:24.650Z,13.61
2023-04-15T08:38:54.948Z,13.75
2023-04-15T08:41:26.267Z,13.52
2023-04-15T08:44:00.396Z,13.36
2023-04-15T08:46:30.855Z,13.75
2023-04-15T08:49:02.094Z,13.60
2023-04-15T08:51:33.692Z,13.84
2023-04-15T08:54:04.922Z,13.61
2023-04-15T08:56:35.011Z,13.46
2023-04-15T08:59:07.129Z,13.54
2023-04-15T09:01:38.870Z,13.41
2023-04-15T09:04:12.528Z,13.58
2023-04-15T09:06:42.801Z,13.64
2023-04-15T09:09:14.496Z,13.95
2023-04-15T09:11:44.525Z,14.02
2023-04-15T09:14:16.604Z,14.04
2023-04-15T09:16:59.981Z,14.09
2023-04-15T09:19:31.589Z,13.90
2023-04-15T09:22:01.454Z,14.01
2023-04-15T09:24:38.610Z,13.97
2023-04-15T09:27:08.710Z,13.98
2023-04-15T09:29:42.766Z,14.32
2023-04-15T09:32:14.168Z,14.34
2023-04-15T09:34:44.746Z,14.15
2023-04-15T09:37:31.728Z,14.25
2023-04-15T09:40:02.513Z,14.33
2023-04-15T09:42:32.632Z,14.62
2023-04-15T09:45:12.137Z,14.34
2023-04-15T09:47:42.203Z,14.49
2023-04-15T09:50:12.558Z,14.24
2023-04-15T09:52:43.883Z,14.27
2023-04-15T09:55:15.091Z,14.16
2023-04-15T09:57:47.085Z,14.05
2023-04-15T10:00:18.996Z,13.89
2023-04-15T10:02:50.039Z,14.06
2023-04-15T10:05:20.692Z,14.39
2023-04-15T10:07:51.204Z,14.40
2023-04-15T10:10:21.677Z,14.20
2023-04-15T10:12:53.778Z,14.08
2023-04-15T10:15:26.041Z,14.22
2023-04-15T10:17:58.178Z,14.20
2023-04-15T10:20:28.880Z,14.23
2023-04-15T10:22:59.220Z,13.90
2023-04-15T10:25:29.988Z,14.02
2023-04-15T10:28:00.957Z,14.03
2023-04-15T10:30:32.953Z,13.84
2023-04-15T10:33:03.943Z,13.92
2023-04-15T10:35:35.068Z,13.86
2023-04-15T10:38:35.727Z,13.86
2023-04-15T10:41:17.946Z,13.64
2023-04-15T10:43:52.887Z,13.70
2023-04-15T10:46:25.924Z,13.89
2023-04-15T10:48:56.238Z,14.02
2023-04-15T10:51:31.274Z,13.66
2023-04-15T10:54:01.816Z,13.70
2023-04-15T10:56:32.128Z,13.55
2023-04-15T10:59:02.976Z,13.10
2023-04-15T11:01:54.774Z,13.24
2023-04-15T11:04:53.642Z,13.30
2023-04-15T11:07:39.640Z,13.56
2023-04-15T11:10:58.578Z,13.37
2023-04-15T11:13:31.406Z,13.62
2023-04-15T11:16:02.780Z,13.62
2023-04-15T11:18:38.438Z,13.62
2023-04-15T11:21:12.914Z,13.68
2023-04-15T11:23:49.652Z,13.42
2023-04-15T11:26:20.010Z,13.65
2023-04-15T11:28:50.184Z,13.66
2023-04-15T11:31:20.755Z,13.73
2023-04-15T11:33:58.239Z,13.64
2023-04-15T11:36:30.174Z,13.79
2023-04-15T11:39:00.976Z,13.71
2023-04-15T11:41:31.224Z,13.69
2023-04-15T11:44:01.465Z,13.91
2023-04-15T11:46:32.438Z,14.01
2023-04-15T11:49:05.048Z,14.04
2023-04-15T11:51:35.455Z,14.15
2023-04-15T11:54:04.586Z,14.23
2023-04-15T11:56:33.539Z,14.21
2023-04-15T11:59:03.076Z,13.85
2023-04-15T12:01:35.214Z,13.96
2023-04-15T12:04:12.813Z,14.13
2023-04-15T12:06:41.763Z,14.16
2023-04-15T12:09:12.322Z,13.83
2023-04-15T12:11:46.012Z,14.04
2023-04-15T12:14:22.778Z,14.07
2023-04-15T12:16:54.045Z,13.57
2023-04-15T12:19:29.421Z,13.84
2023-04-15T12:22:02.491Z,14.06
2023-04-15T12:24:33.193Z,14.22
2023-04-15T12:27:08.033Z,14.29
2023-04-15T12:29:38.418Z,14.50
2023-04-15T12:32:08.920Z,14.55
2023-04-15T12:34:41.409Z,14.46
2023-04-15T12:37:11.223Z,14.45
2023-04-15T12:39:42.415Z,14.25
2023-04-15T12:42:11.329Z,14.34
2023-04-15T12:44:40.825Z,14.47
2023-04-15T12:47:10.107Z,14.49
2023-04-15T12:49:40.930Z,14.42
2023-04-15T12:52:10.262Z,14.35
2023-04-15T12:54:39.022Z,14.51
2023-04-15T12:57:08.238Z,14.68
2023-04-15T12:59:37.652Z,14.75
2023-04-15T13:02:06.587Z,14.72
2023-04-15T13:04:35.705Z,14.79
2023-04-15T13:07:06.327Z,14.82
2023-04-15T13:09:35.293Z,14.67
2023-04-15T13:12:05.447Z,14.80
2023-04-15T13:14:34.399Z,14.90
2023-04-15T13:17:04.259Z,14.62
2023-04-15T13:19:33.159Z,14.43
2023-04-15T13:22:01.846Z,14.67
2023-04-15T13:24:32.028Z,14.42
2023-04-15T13:27:01.000Z,14.79
2023-04-15T13:29:29.686Z,15.05
2023-04-15T13:31:58.832Z,15.37
2023-04-15T13:34:27.956Z,15.41
2023-04-15T13:36:56.649Z,15.57
2023-04-15T13:39:25.650Z,15.40
2023-04-15T13:41:56.070Z,15.51
2023-04-15T13:44:24.762Z,15.26
2023-04-15T13:46:53.807Z,15.29
2023-04-15T13:49:22.731Z,15.56
2023-04-15T13:51:52.266Z,15.96
2023-04-15T13:54:20.949Z,15.85
2023-04-15T13:56:50.502Z,15.70
2023-04-15T13:59:22.016Z,16.02
2023-04-15T14:01:51.175Z,15.95
2023-04-15T14:04:20.670Z,16.10
2023-04-15T14:06:49.938Z,16.14
2023-04-15T14:09:18.786Z,15.81
2023-04-15T14:11:47.871Z,15.68
2023-04-15T14:14:16.770Z,15.49
2023-04-15T14:16:47.921Z,15.38
2023-04-15T14:19:17.278Z,15.12
2023-04-15T14:21:46.470Z,15.04
2023-04-15T14:24:15.431Z,14.93
2023-04-15T14:26:44.997Z,15.05
2023-04-15T14:29:14.490Z,14.92
2023-04-15T14:31:44.864Z,15.00
2023-04-15T14:34:35.385Z,14.79
2023-04-15T14:37:04.607Z,14.91
2023-04-15T14:39:34.021Z,15.13
2023-04-15T14:42:03.132Z,15.15
2023-04-15T14:47:05.977Z,15.29
2023-04-15T14:49:36.045Z,15.26
2023-04-15T14:52:05.402Z,15.14
2023-04-15T14:54:34.314Z,15.26
2023-04-15T14:57:05.628Z,14.63
2023-04-15T14:59:34.597Z,14.99
2023-04-15T15:02:04.294Z,14.99
2023-04-15T15:04:33.719Z,14.63
2023-04-15T15:07:04.287Z,14.63
2023-04-15T15:09:34.520Z,14.48
2023-04-15T15:12:04.024Z,14.65
2023-04-15T15:14:32.750Z,14.52
2023-04-15T15:17:01.566Z,14.49
2023-04-15T15:19:31.028Z,14.45
2023-04-15T15:22:00.332Z,14.30
2023-04-15T15:24:30.501Z,14.13
2023-04-15T15:26:59.867Z,14.25
2023-04-15T15:29:28.960Z,14.25
2023-04-15T15:31:57.762Z,14.25
2023-04-15T15:34:26.707Z,14.33
2023-04-15T15:36:56.930Z,14.06
2023-04-15T15:39:26.217Z,13.88
2023-04-15T15:41:56.634Z,13.85
2023-04-15T15:44:25.588Z,13.70
2023-04-15T15:46:55.390Z,13.37
2023-04-15T15:49:25.416Z,13.13
2023-04-15T15:51:54.380Z,12.86
2023-04-15T15:54:23.030Z,12.92
2023-04-15T15:56:51.713Z,12.58
2023-04-15T15:59:22.174Z,12.69
2023-04-15T16:01:50.938Z,12.69
2023-04-15T16:04:20.254Z,13.00
2023-04-15T16:06:49.801Z,12.87
2023-04-15T16:09:18.582Z,13.01
2023-04-15T16:11:47.508Z,13.07
2023-04-15T16:14:16.862Z,13.04
2023-04-15T16:16:46.913Z,13.07
2023-04-15T16:19:16.564Z,13.22
2023-04-15T16:21:46.104Z,13.46
2023-04-15T16:24:14.959Z,13.36
2023-04-15T16:26:43.895Z,13.20
2023-04-15T16:29:12.756Z,13.47
2023-04-15T16:31:41.872Z,13.45
2023-04-15T16:34:13.038Z,13.39
2023-04-15T16:36:42.012Z,13.25
2023-04-15T16:39:11.734Z,13.13
2023-04-15T16:41:41.579Z,13.00
2023-04-15T16:44:11.229Z,12.91
2023-04-15T16:46:41.040Z,12.62
2023-04-15T16:49:10.649Z,12.68
2023-04-15T16:51:41.133Z,12.63
2023-04-15T16:54:10.147Z,12.57
2023-04-15T16:56:38.864Z,12.71
2023-04-15T16:59:07.758Z,12.63
2023-04-15T17:01:36.934Z,12.75
2023-04-15T17:04:06.694Z,12.59
2023-04-15T17:06:35.957Z,12.53
2023-04-15T17:09:07.699Z,12.32
2023-04-15T17:11:41.861Z,12.50
2023-04-15T17:14:11.538Z,12.43
2023-04-15T17:16:43.571Z,12.27
2023-04-15T17:19:12.756Z,12.37
2023-04-15T17:21:47.009Z,12.27
2023-04-15T17:24:23.591Z,12.32
2023-04-15T17:26:57.826Z,12.29
2023-04-15T17:29:27.384Z,12.37
2023-04-15T17:31:58.642Z,12.51
2023-04-15T17:34:51.445Z,12.42
2023-04-15T17:37:20.814Z,12.66
2023-04-15T17:40:13.895Z,12.59
2023-04-15T17:43:03.253Z,12.39
2023-04-15T17:45:58.631Z,12.32
2023-04-15T17:48:47.998Z,12.32
2023-04-15T17:51:38.198Z,12.06
2023-04-15T17:54:28.607Z,12.02
2023-04-15T17:57:20.337Z,12.31
2023-04-15T18:00:12.174Z,11.93
2023-04-15T18:03:02.505Z,12.01
2023-04-15T18:05:51.876Z,11.77
2023-04-15T18:08:41.272Z,11.75
2023-04-15T18:11:31.284Z,11.63
2023-04-15T18:14:33.559Z,11.72
2023-04-15T18:17:24.482Z,11.85
2023-04-15T18:20:14.839Z,11.79
2023-04-15T18:22:51.059Z,11.79
2023-04-15T18:25:25.129Z,11.72
2023-04-15T18:27:57.012Z,11.57
2023-04-15T18:30:27.463Z,11.27
2023-04-15T18:32:56.892Z,11.50
2023-04-15T18:35:31.206Z,11.39
2023-04-15T18:38:01.557Z,11.14
2023-04-15T18:40:31.719Z,11.02
2023-04-15T18:43:01.530Z,10.95
2023-04-15T18:45:33.647Z,11.20
2023-04-15T18:48:04.307Z,11.22
2023-04-15T18:50:34.691Z,11.18
2023-04-15T18:53:03.666Z,11.14
2023-04-15T18:55:33.556Z,10.87
2023-04-15T18:58:09.050Z,11.04
2023-04-15T19:00:42.241Z,11.09
2023-04-15T19:03:12.772Z,11.01
2023-04-15T19:05:43.405Z,10.93
2023-04-15T19:08:13.372Z,10.88
2023-04-15T19:10:44.812Z,10.85
2023-04-15T19:13:14.183Z,10.70
2023-04-15T19:15:46.000Z,10.54
2023-04-15T19:18:16.666Z,10.85
2023-04-15T19:20:47.799Z,10.85
2023-04-15T19:23:17.038Z,10.67
2023-04-15T19:25:48.676Z,10.70
2023-04-15T19:28:20.824Z,10.70
2023-04-15T19:30:52.589Z,10.72
2023-04-15T19:33:22.360Z,10.70
2023-04-15T19:35:53.257Z,10.44
2023-04-15T19:38:23.877Z,10.65
2023-04-15T19:40:55.065Z,10.77
2023-04-15T19:43:25.199Z,10.72
2023-04-15T19:45:56.608Z,10.62
2023-04-15T19:48:26.937Z,10.63
2023-04-15T19:51:00.401Z,10.78
2023-04-15T19:53:31.211Z,10.80
2023-04-15T19:56:02.567Z,10.80
2023-04-15T19:58:33.016Z,10.81
2023-04-15T20:01:04.187Z,10.78
2023-04-15T20:03:34.111Z,10.78
2023-04-15T20:06:04.040Z,10.88
2023-04-15T20:08:33.421Z,10.74
2023-04-15T20:11:03.287Z,10.74
2023-04-15T20:13:33.925Z,10.63
2023-04-15T20:16:08.051Z,10.89
2023-04-15T20:18:37.759Z,10.79
2023-04-15T20:21:08.258Z,10.81
2023-04-15T20:23:38.795Z,10.70
2023-04-15T20:26:10.121Z,10.83
2023-04-15T20:28:38.794Z,10.84
2023-04-15T20:31:10.833Z,10.87
2023-04-15T20:33:40.280Z,10.85
2023-04-15T20:36:09.840Z,10.71
2023-04-15T20:38:38.946Z,10.75
2023-04-15T20:41:08.447Z,10.66
2023-04-15T20:43:38.866Z,10.57
2023-04-15T20:46:20.432Z,10.69
2023-04-15T20:48:50.975Z,10.62
2023-04-15T20:51:20.307Z,10.57
2023-04-15T20:53:49.271Z,10.42
2023-04-15T20:56:18.219Z,10.51
2023-04-15T20:58:46.995Z,10.43
2023-04-15T21:01:17.788Z,10.68
2023-04-15T21:03:48.368Z,10.66
2023-04-15T21:06:18.294Z,10.50
2023-04-15T21:08:47.277Z,10.29
2023-04-15T21:11:25.712Z,10.35
2023-04-15T21:14:08.717Z,10.32
2023-04-15T21:16:41.495Z,10.41
2023-04-15T21:19:10.853Z,10.40
2023-04-15T21:21:39.851Z,10.22
2023-04-15T21:24:08.763Z,10.40
2023-04-15T21:26:37.808Z,10.36
2023-04-15T21:29:08.669Z,10.28
2023-04-15T21:31:41.383Z,10.17
2023-04-15T21:34:10.447Z,10.16
2023-04-15T21:36:39.721Z,10.34
2023-04-15T21:39:08.489Z,10.52
2023-04-15T21:41:37.863Z,9.97
2023-04-15T21:44:07.151Z,10.14
2023-04-15T21:46:36.346Z,10.14
2023-04-15T21:49:07.441Z,10.21
2023-04-15T21:51:36.385Z,10.16
2023-04-15T21:54:05.138Z,10.07
2023-04-15T21:56:33.899Z,9.98
2023-04-15T21:59:03.011Z,10.11
2023-04-15T22:01:32.175Z,10.12
2023-04-15T22:04:01.386Z,10.19
2023-04-15T22:06:31.712Z,10.20
2023-04-15T22:09:00.381Z,10.22
2023-04-15T22:11:30.848Z,9.99
2023-04-15T22:13:59.837Z,10.33
2023-04-15T22:16:29.068Z,10.05
2023-04-15T22:18:58.078Z,10.25
2023-04-15T22:21:26.850Z,10.36
2023-04-15T22:24:31.631Z,10.35
2023-04-15T22:26:45.959Z,10.48
2023-04-15T22:29:14.735Z,10.41
2023-04-15T22:31:43.891Z,10.46
2023-04-15T22:34:14.821Z,10.38
2023-04-15T22:36:43.519Z,10.40
2023-04-15T22:39:13.568Z,10.26
2023-04-15T22:41:42.863Z,10.30
2023-04-15T22:44:11.882Z,10.37
2023-04-15T22:46:40.721Z,10.34
2023-04-15T22:49:11.007Z,10.49
2023-04-15T22:51:39.704Z,10.42
2023-04-15T22:54:08.421Z,10.41
2023-04-15T22:56:38.671Z,10.45
2023-04-15T22:59:07.731Z,10.47
2023-04-15T23:01:38.230Z,10.49
2023-04-15T23:04:09.076Z,10.39
2023-04-15T23:06:56.179Z,10.25
2023-04-15T23:09:25.295Z,10.44
2023-04-15T23:11:56.709Z,10.44
2023-04-15T23:14:27.990Z,10.17
2023-04-15T23:16:58.489Z,10.22
2023-04-15T23:19:27.480Z,10.34
2023-04-15T23:21:56.415Z,10.18
2023-04-15T23:24:25.126Z,10.21
2023-04-15T23:26:57.287Z,10.31
2023-04-15T23:29:26.178Z,10.34
2023-04-15T23:31:55.235Z,10.26
2023-04-15T23:34:23.988Z,10.32
2023-04-15T23:36:52.663Z,10.17
2023-04-15T23:39:21.680Z,10.00
2023-04-15T23:41:50.300Z,10.11
2023-04-15T23:44:20.368Z,10.25
2023-04-15T23:46:49.399Z,9.81
2023-04-15T23:49:20.236Z,10.13
2023-04-15T23:51:49.290Z,9.91
2023-04-15T23:54:17.876Z,9.99
2023-04-15T23:56:46.617Z,9.71
2023-04-15T23:59:15.570Z,9.86
